Huvudsida
METAR-TAF:

METAR-TAF

Flygplatser :

Amman Civil Airport

Amman, Jordanien

latitud: 31-59N, longitud: 035-59E, höjd: 767 m

Aktuellt väderrapport

Denna rapport gjordes för 49 minuter sedan, klockan 02:00 UTC
Stilla vind
Temperatur 20°C
Fuktighet 83%
Tryck 1017 hPa
Sikt: 8000 m

METAR: OJAM 230200Z 00000KT 8000 NSC 20/17 Q1017 NOSIG

Tid: 05:49 (02:49 UTC)

Väderprognos

Denna rapport gjordes för 5 timmar och 14 minuter sedan, klockan 21:35 UTC
Prognos gäller från 23 kl. 00 UTC till 24 kl. 06 UTC
Vind 2 kt varierande vindriktning
Sikt: 7000 m
Sannolikhet 30%
från 23 kl. 02 UTC till 23 kl. 05 UTC
Sikt: 4000 m
fuktdis
Blir
från 23 kl. 05 UTC till 23 kl. 07 UTC
Vind 10 kt från väst/nordväst
Sikt: 5000 m
Få moln på en höjd av 3500 ft
torrdis

TAF: OJAM 222135Z 2300/2406 VRB02KT 7000 NSC PROB30 2302/2305 4000 BR BECMG 2305/2307 30010KT 5000 HZ FEW035

Aktuella väderrapporter och prognoser från 4000 flygplatser (METAR- och TAF-rapporter).

De tillgängliga stationerna syns som gula och röda prickar på kartan.

För musen över prickarna för att se namnen på stationerna.

Klicka sedan för att få väderrapporter och prognoser.

För att ändra kartan: Klicka på de gröna knapparna med ett svart kors på för att zooma in; den gröna knappen med ett streck på för att zooma ut; eller på de gröna pilarna för angränsande kartor.


METAR-TAF: